sensor_id;sensor_type;location;lat;lon;timestamp;P1;durP1;ratioP1;P2;durP2;ratioP2
33268;SDS011;19640;50.944;5.260;2024-03-07T00:00:05;69.72;;;31.08;;
33268;SDS011;19640;50.944;5.260;2024-03-07T00:02:39;65.97;;;30.00;;
33268;SDS011;19640;50.944;5.260;2024-03-07T00:05:09;75.53;;;31.83;;
33268;SDS011;19640;50.944;5.260;2024-03-07T00:07:35;74.28;;;32.10;;
33268;SDS011;19640;50.944;5.260;2024-03-07T00:10:02;65.47;;;28.33;;
33268;SDS011;19640;50.944;5.260;2024-03-07T00:12:28;64.95;;;28.30;;
33268;SDS011;19640;50.944;5.260;2024-03-07T00:14:55;61.65;;;27.70;;
33268;SDS011;19640;50.944;5.260;2024-03-07T00:17:20;66.55;;;27.45;;
33268;SDS011;19640;50.944;5.260;2024-03-07T00:19:48;64.47;;;29.55;;
33268;SDS011;19640;50.944;5.260;2024-03-07T00:22:13;65.38;;;28.88;;
33268;SDS011;19640;50.944;5.260;2024-03-07T00:24:40;61.17;;;28.08;;
33268;SDS011;19640;50.944;5.260;2024-03-07T00:27:05;74.95;;;31.50;;
33268;SDS011;19640;50.944;5.260;2024-03-07T00:29:32;76.53;;;31.95;;
33268;SDS011;19640;50.944;5.260;2024-03-07T00:32:00;70.00;;;32.03;;
33268;SDS011;19640;50.944;5.260;2024-03-07T00:34:26;76.30;;;32.67;;
33268;SDS011;19640;50.944;5.260;2024-03-07T00:36:52;73.82;;;31.58;;
33268;SDS011;19640;50.944;5.260;2024-03-07T00:39:18;78.75;;;33.30;;
33268;SDS011;19640;50.944;5.260;2024-03-07T00:41:44;67.82;;;30.67;;
33268;SDS011;19640;50.944;5.260;2024-03-07T00:44:10;75.60;;;30.80;;
33268;SDS011;19640;50.944;5.260;2024-03-07T00:46:36;74.03;;;31.55;;
33268;SDS011;19640;50.944;5.260;2024-03-07T00:49:02;70.95;;;30.77;;
33268;SDS011;19640;50.944;5.260;2024-03-07T00:51:28;68.82;;;28.63;;
33268;SDS011;19640;50.944;5.260;2024-03-07T00:53:54;64.85;;;28.38;;
33268;SDS011;19640;50.944;5.260;2024-03-07T00:56:20;62.47;;;28.30;;
33268;SDS011;19640;50.944;5.260;2024-03-07T00:58:47;58.28;;;25.75;;
33268;SDS011;19640;50.944;5.260;2024-03-07T01:01:14;66.88;;;29.17;;
33268;SDS011;19640;50.944;5.260;2024-03-07T01:03:40;72.80;;;31.58;;
33268;SDS011;19640;50.944;5.260;2024-03-07T01:06:06;66.35;;;30.38;;
33268;SDS011;19640;50.944;5.260;2024-03-07T01:08:34;64.93;;;27.98;;
33268;SDS011;19640;50.944;5.260;2024-03-07T01:11:02;72.15;;;31.13;;
33268;SDS011;19640;50.944;5.260;2024-03-07T01:13:40;47.92;;;24.63;;
33268;SDS011;19640;50.944;5.260;2024-03-07T01:16:07;58.50;;;27.27;;
33268;SDS011;19640;50.944;5.260;2024-03-07T01:18:33;60.42;;;27.27;;
33268;SDS011;19640;50.944;5.260;2024-03-07T01:21:02;70.95;;;29.52;;
33268;SDS011;19640;50.944;5.260;2024-03-07T01:23:28;78.15;;;33.22;;
33268;SDS011;19640;50.944;5.260;2024-03-07T01:25:58;76.50;;;31.08;;
33268;SDS011;19640;50.944;5.260;2024-03-07T01:28:24;71.20;;;30.75;;
33268;SDS011;19640;50.944;5.260;2024-03-07T01:30:51;64.50;;;27.95;;
33268;SDS011;19640;50.944;5.260;2024-03-07T01:33:17;60.65;;;27.33;;
33268;SDS011;19640;50.944;5.260;2024-03-07T01:35:46;74.30;;;30.85;;
33268;SDS011;19640;50.944;5.260;2024-03-07T01:38:13;67.28;;;28.83;;
33268;SDS011;19640;50.944;5.260;2024-03-07T01:40:42;60.55;;;28.02;;
33268;SDS011;19640;50.944;5.260;2024-03-07T01:43:09;77.20;;;32.17;;
33268;SDS011;19640;50.944;5.260;2024-03-07T01:45:35;67.53;;;30.05;;
33268;SDS011;19640;50.944;5.260;2024-03-07T01:48:05;63.97;;;27.25;;
33268;SDS011;19640;50.944;5.260;2024-03-07T01:50:32;64.82;;;28.17;;
33268;SDS011;19640;50.944;5.260;2024-03-07T01:52:58;65.95;;;28.35;;
33268;SDS011;19640;50.944;5.260;2024-03-07T01:55:24;72.07;;;31.23;;
33268;SDS011;19640;50.944;5.260;2024-03-07T01:57:52;69.75;;;29.40;;
33268;SDS011;19640;50.944;5.260;2024-03-07T02:00:20;70.32;;;30.63;;
33268;SDS011;19640;50.944;5.260;2024-03-07T02:02:46;61.05;;;26.67;;
33268;SDS011;19640;50.944;5.260;2024-03-07T02:05:11;60.15;;;27.45;;
33268;SDS011;19640;50.944;5.260;2024-03-07T02:07:38;66.05;;;27.15;;
33268;SDS011;19640;50.944;5.260;2024-03-07T02:10:04;70.88;;;29.42;;
33268;SDS011;19640;50.944;5.260;2024-03-07T02:12:31;60.03;;;26.90;;
33268;SDS011;19640;50.944;5.260;2024-03-07T02:14:57;66.63;;;29.05;;
33268;SDS011;19640;50.944;5.260;2024-03-07T02:17:24;64.75;;;28.40;;
33268;SDS011;19640;50.944;5.260;2024-03-07T02:19:50;74.25;;;29.25;;
33268;SDS011;19640;50.944;5.260;2024-03-07T02:22:16;60.60;;;27.65;;
33268;SDS011;19640;50.944;5.260;2024-03-07T02:24:42;64.05;;;28.27;;
33268;SDS011;19640;50.944;5.260;2024-03-07T02:27:07;61.20;;;26.85;;
33268;SDS011;19640;50.944;5.260;2024-03-07T02:29:34;59.92;;;26.08;;
33268;SDS011;19640;50.944;5.260;2024-03-07T02:32:01;45.53;;;21.33;;
33268;SDS011;19640;50.944;5.260;2024-03-07T02:34:27;45.13;;;22.55;;
33268;SDS011;19640;50.944;5.260;2024-03-07T02:36:53;53.10;;;25.00;;
33268;SDS011;19640;50.944;5.260;2024-03-07T02:39:19;68.78;;;27.92;;
33268;SDS011;19640;50.944;5.260;2024-03-07T02:41:46;59.00;;;27.38;;
33268;SDS011;19640;50.944;5.260;2024-03-07T02:44:13;63.10;;;28.17;;
33268;SDS011;19640;50.944;5.260;2024-03-07T02:46:39;75.43;;;29.40;;
33268;SDS011;19640;50.944;5.260;2024-03-07T02:49:05;63.78;;;28.92;;
33268;SDS011;19640;50.944;5.260;2024-03-07T02:51:31;59.05;;;25.17;;
33268;SDS011;19640;50.944;5.260;2024-03-07T02:53:57;55.72;;;24.52;;
33268;SDS011;19640;50.944;5.260;2024-03-07T02:56:23;56.67;;;25.52;;
33268;SDS011;19640;50.944;5.260;2024-03-07T02:58:50;51.83;;;24.63;;
33268;SDS011;19640;50.944;5.260;2024-03-07T03:01:16;58.72;;;24.55;;
33268;SDS011;19640;50.944;5.260;2024-03-07T03:03:42;74.10;;;27.63;;
33268;SDS011;19640;50.944;5.260;2024-03-07T03:06:08;76.22;;;31.20;;
33268;SDS011;19640;50.944;5.260;2024-03-07T03:08:34;71.60;;;27.85;;
33268;SDS011;19640;50.944;5.260;2024-03-07T03:11:00;59.17;;;26.15;;
33268;SDS011;19640;50.944;5.260;2024-03-07T03:13:26;59.40;;;25.98;;
33268;SDS011;19640;50.944;5.260;2024-03-07T03:15:55;71.28;;;28.95;;
33268;SDS011;19640;50.944;5.260;2024-03-07T03:18:24;69.38;;;28.25;;
33268;SDS011;19640;50.944;5.260;2024-03-07T03:20:50;80.38;;;30.98;;
33268;SDS011;19640;50.944;5.260;2024-03-07T03:23:17;69.03;;;28.10;;
33268;SDS011;19640;50.944;5.260;2024-03-07T03:25:43;78.32;;;31.48;;
33268;SDS011;19640;50.944;5.260;2024-03-07T03:28:10;82.03;;;32.55;;
33268;SDS011;19640;50.944;5.260;2024-03-07T03:30:39;84.28;;;33.58;;
33268;SDS011;19640;50.944;5.260;2024-03-07T03:33:06;82.20;;;33.08;;
33268;SDS011;19640;50.944;5.260;2024-03-07T03:35:36;79.78;;;30.75;;
33268;SDS011;19640;50.944;5.260;2024-03-07T03:38:02;77.68;;;32.03;;
33268;SDS011;19640;50.944;5.260;2024-03-07T03:40:28;87.53;;;35.38;;
33268;SDS011;19640;50.944;5.260;2024-03-07T03:42:54;78.80;;;31.77;;
33268;SDS011;19640;50.944;5.260;2024-03-07T03:45:20;74.78;;;29.42;;
33268;SDS011;19640;50.944;5.260;2024-03-07T03:47:46;73.18;;;29.52;;
33268;SDS011;19640;50.944;5.260;2024-03-07T03:50:13;73.72;;;30.15;;
33268;SDS011;19640;50.944;5.260;2024-03-07T03:52:39;77.40;;;29.23;;
33268;SDS011;19640;50.944;5.260;2024-03-07T03:55:06;70.90;;;30.33;;
33268;SDS011;19640;50.944;5.260;2024-03-07T03:57:34;62.17;;;25.48;;
33268;SDS011;19640;50.944;5.260;2024-03-07T04:00:01;83.20;;;32.97;;
33268;SDS011;19640;50.944;5.260;2024-03-07T04:02:35;82.55;;;33.65;;
33268;SDS011;19640;50.944;5.260;2024-03-07T04:05:02;83.13;;;30.20;;
33268;SDS011;19640;50.944;5.260;2024-03-07T04:07:29;76.03;;;29.60;;
33268;SDS011;19640;50.944;5.260;2024-03-07T04:09:56;86.00;;;32.65;;
33268;SDS011;19640;50.944;5.260;2024-03-07T04:12:23;76.80;;;30.80;;
33268;SDS011;19640;50.944;5.260;2024-03-07T04:14:51;85.32;;;31.60;;
33268;SDS011;19640;50.944;5.260;2024-03-07T04:17:19;86.85;;;32.40;;
33268;SDS011;19640;50.944;5.260;2024-03-07T04:19:46;82.63;;;33.13;;
33268;SDS011;19640;50.944;5.260;2024-03-07T04:22:11;90.43;;;34.45;;
33268;SDS011;19640;50.944;5.260;2024-03-07T04:24:37;84.60;;;33.53;;
33268;SDS011;19640;50.944;5.260;2024-03-07T04:27:03;84.35;;;33.38;;
33268;SDS011;19640;50.944;5.260;2024-03-07T04:29:33;79.38;;;29.95;;
33268;SDS011;19640;50.944;5.260;2024-03-07T04:31:59;69.95;;;30.08;;
33268;SDS011;19640;50.944;5.260;2024-03-07T04:34:26;75.22;;;29.67;;
33268;SDS011;19640;50.944;5.260;2024-03-07T04:36:56;63.28;;;27.08;;
33268;SDS011;19640;50.944;5.260;2024-03-07T04:39:29;84.80;;;30.80;;
33268;SDS011;19640;50.944;5.260;2024-03-07T04:41:58;63.83;;;26.55;;
33268;SDS011;19640;50.944;5.260;2024-03-07T04:44:25;68.53;;;29.25;;
33268;SDS011;19640;50.944;5.260;2024-03-07T04:46:51;72.47;;;27.25;;
33268;SDS011;19640;50.944;5.260;2024-03-07T04:49:24;86.07;;;29.90;;
33268;SDS011;19640;50.944;5.260;2024-03-07T04:51:50;75.82;;;31.17;;
33268;SDS011;19640;50.944;5.260;2024-03-07T04:54:17;83.63;;;32.97;;
33268;SDS011;19640;50.944;5.260;2024-03-07T04:56:44;91.95;;;34.15;;
33268;SDS011;19640;50.944;5.260;2024-03-07T04:59:10;92.43;;;34.88;;
33268;SDS011;19640;50.944;5.260;2024-03-07T05:01:37;90.05;;;33.75;;
33268;SDS011;19640;50.944;5.260;2024-03-07T05:04:03;96.72;;;35.13;;
33268;SDS011;19640;50.944;5.260;2024-03-07T05:06:29;111.85;;;35.85;;
33268;SDS011;19640;50.944;5.260;2024-03-07T05:08:59;99.22;;;36.65;;
33268;SDS011;19640;50.944;5.260;2024-03-07T05:11:27;108.40;;;34.30;;
33268;SDS011;19640;50.944;5.260;2024-03-07T05:13:53;114.22;;;34.25;;
33268;SDS011;19640;50.944;5.260;2024-03-07T05:16:19;107.72;;;34.38;;
33268;SDS011;19640;50.944;5.260;2024-03-07T05:18:45;119.13;;;37.22;;
33268;SDS011;19640;50.944;5.260;2024-03-07T05:21:11;109.78;;;35.75;;
33268;SDS011;19640;50.944;5.260;2024-03-07T05:23:55;122.75;;;37.42;;
33268;SDS011;19640;50.944;5.260;2024-03-07T05:26:20;117.35;;;35.20;;
33268;SDS011;19640;50.944;5.260;2024-03-07T05:28:46;122.43;;;38.47;;
33268;SDS011;19640;50.944;5.260;2024-03-07T05:31:12;123.07;;;38.13;;
33268;SDS011;19640;50.944;5.260;2024-03-07T05:33:38;123.63;;;39.08;;
33268;SDS011;19640;50.944;5.260;2024-03-07T05:36:06;121.85;;;38.88;;
33268;SDS011;19640;50.944;5.260;2024-03-07T05:38:43;130.05;;;38.47;;
33268;SDS011;19640;50.944;5.260;2024-03-07T05:41:10;119.28;;;37.55;;
33268;SDS011;19640;50.944;5.260;2024-03-07T05:43:40;121.18;;;37.15;;
33268;SDS011;19640;50.944;5.260;2024-03-07T05:46:06;130.15;;;37.90;;
33268;SDS011;19640;50.944;5.260;2024-03-07T05:48:32;118.53;;;37.35;;
33268;SDS011;19640;50.944;5.260;2024-03-07T05:50:58;123.57;;;38.65;;
33268;SDS011;19640;50.944;5.260;2024-03-07T05:53:25;116.10;;;37.35;;
33268;SDS011;19640;50.944;5.260;2024-03-07T05:55:50;133.02;;;38.33;;
33268;SDS011;19640;50.944;5.260;2024-03-07T05:58:16;138.93;;;40.40;;
33268;SDS011;19640;50.944;5.260;2024-03-07T06:00:45;127.68;;;40.47;;
33268;SDS011;19640;50.944;5.260;2024-03-07T06:03:17;117.50;;;35.97;;
33268;SDS011;19640;50.944;5.260;2024-03-07T06:05:47;116.53;;;37.25;;
33268;SDS011;19640;50.944;5.260;2024-03-07T06:08:14;118.43;;;36.30;;
33268;SDS011;19640;50.944;5.260;2024-03-07T06:10:42;116.88;;;37.20;;
33268;SDS011;19640;50.944;5.260;2024-03-07T06:13:08;113.45;;;36.80;;
33268;SDS011;19640;50.944;5.260;2024-03-07T06:15:36;121.40;;;38.58;;
33268;SDS011;19640;50.944;5.260;2024-03-07T06:18:03;117.32;;;37.90;;
33268;SDS011;19640;50.944;5.260;2024-03-07T06:20:29;120.97;;;40.08;;
33268;SDS011;19640;50.944;5.260;2024-03-07T06:22:54;122.78;;;38.53;;
33268;SDS011;19640;50.944;5.260;2024-03-07T06:25:22;108.10;;;36.38;;
33268;SDS011;19640;50.944;5.260;2024-03-07T06:28:12;115.43;;;38.30;;
33268;SDS011;19640;50.944;5.260;2024-03-07T06:30:39;118.43;;;38.40;;
33268;SDS011;19640;50.944;5.260;2024-03-07T06:33:10;111.65;;;37.03;;
33268;SDS011;19640;50.944;5.260;2024-03-07T06:35:36;110.45;;;35.63;;
33268;SDS011;19640;50.944;5.260;2024-03-07T06:38:07;109.70;;;34.92;;
33268;SDS011;19640;50.944;5.260;2024-03-07T06:40:34;109.22;;;36.08;;
33268;SDS011;19640;50.944;5.260;2024-03-07T06:43:00;120.93;;;37.92;;
33268;SDS011;19640;50.944;5.260;2024-03-07T06:45:28;122.20;;;39.67;;
33268;SDS011;19640;50.944;5.260;2024-03-07T06:47:55;114.13;;;37.42;;
33268;SDS011;19640;50.944;5.260;2024-03-07T06:50:20;109.85;;;37.17;;
33268;SDS011;19640;50.944;5.260;2024-03-07T06:52:46;108.20;;;34.88;;
33268;SDS011;19640;50.944;5.260;2024-03-07T06:55:15;114.72;;;36.40;;
33268;SDS011;19640;50.944;5.260;2024-03-07T06:57:42;113.07;;;38.30;;
33268;SDS011;19640;50.944;5.260;2024-03-07T07:00:09;119.82;;;37.80;;
33268;SDS011;19640;50.944;5.260;2024-03-07T07:02:39;111.47;;;37.00;;
33268;SDS011;19640;50.944;5.260;2024-03-07T07:05:08;114.85;;;37.83;;
33268;SDS011;19640;50.944;5.260;2024-03-07T07:07:37;110.43;;;36.85;;
33268;SDS011;19640;50.944;5.260;2024-03-07T07:10:04;109.25;;;36.85;;
33268;SDS011;19640;50.944;5.260;2024-03-07T07:12:33;103.32;;;35.75;;
33268;SDS011;19640;50.944;5.260;2024-03-07T07:15:00;107.97;;;37.33;;
33268;SDS011;19640;50.944;5.260;2024-03-07T07:17:25;110.03;;;37.85;;
33268;SDS011;19640;50.944;5.260;2024-03-07T07:19:54;104.50;;;37.60;;
33268;SDS011;19640;50.944;5.260;2024-03-07T07:22:21;108.28;;;36.25;;
33268;SDS011;19640;50.944;5.260;2024-03-07T07:24:46;102.22;;;36.20;;
33268;SDS011;19640;50.944;5.260;2024-03-07T07:27:12;112.70;;;37.85;;
33268;SDS011;19640;50.944;5.260;2024-03-07T07:29:38;113.32;;;37.88;;
33268;SDS011;19640;50.944;5.260;2024-03-07T07:32:04;109.13;;;36.85;;
33268;SDS011;19640;50.944;5.260;2024-03-07T07:34:30;107.20;;;37.42;;
33268;SDS011;19640;50.944;5.260;2024-03-07T07:36:56;102.70;;;37.03;;
33268;SDS011;19640;50.944;5.260;2024-03-07T07:39:22;117.57;;;40.40;;
33268;SDS011;19640;50.944;5.260;2024-03-07T07:41:47;117.40;;;42.17;;
33268;SDS011;19640;50.944;5.260;2024-03-07T07:44:13;111.15;;;40.00;;
33268;SDS011;19640;50.944;5.260;2024-03-07T07:46:39;117.90;;;40.15;;
33268;SDS011;19640;50.944;5.260;2024-03-07T07:49:05;112.82;;;40.45;;
33268;SDS011;19640;50.944;5.260;2024-03-07T07:51:31;129.25;;;42.80;;
33268;SDS011;19640;50.944;5.260;2024-03-07T07:53:57;127.90;;;43.95;;
33268;SDS011;19640;50.944;5.260;2024-03-07T07:56:24;120.93;;;41.58;;
33268;SDS011;19640;50.944;5.260;2024-03-07T07:58:50;119.72;;;41.05;;
33268;SDS011;19640;50.944;5.260;2024-03-07T08:01:16;104.65;;;39.13;;
33268;SDS011;19640;50.944;5.260;2024-03-07T08:03:42;104.72;;;38.08;;
33268;SDS011;19640;50.944;5.260;2024-03-07T08:06:09;105.70;;;38.45;;
33268;SDS011;19640;50.944;5.260;2024-03-07T08:08:35;103.82;;;37.50;;
33268;SDS011;19640;50.944;5.260;2024-03-07T08:11:01;104.38;;;40.63;;
33268;SDS011;19640;50.944;5.260;2024-03-07T08:13:27;96.65;;;36.83;;
33268;SDS011;19640;50.944;5.260;2024-03-07T08:15:52;94.13;;;35.80;;
33268;SDS011;19640;50.944;5.260;2024-03-07T08:18:19;79.35;;;32.47;;
33268;SDS011;19640;50.944;5.260;2024-03-07T08:20:45;90.50;;;36.00;;
33268;SDS011;19640;50.944;5.260;2024-03-07T08:23:11;85.57;;;34.15;;
33268;SDS011;19640;50.944;5.260;2024-03-07T08:25:40;95.78;;;36.35;;
33268;SDS011;19640;50.944;5.260;2024-03-07T08:28:06;90.65;;;33.40;;
33268;SDS011;19640;50.944;5.260;2024-03-07T08:30:32;90.35;;;36.10;;
33268;SDS011;19640;50.944;5.260;2024-03-07T08:32:58;81.50;;;32.30;;
33268;SDS011;19640;50.944;5.260;2024-03-07T08:35:27;78.72;;;32.65;;
33268;SDS011;19640;50.944;5.260;2024-03-07T08:37:54;74.63;;;31.88;;
33268;SDS011;19640;50.944;5.260;2024-03-07T08:40:21;75.80;;;31.70;;
33268;SDS011;19640;50.944;5.260;2024-03-07T08:42:52;69.95;;;31.58;;
33268;SDS011;19640;50.944;5.260;2024-03-07T08:45:22;70.50;;;29.97;;
33268;SDS011;19640;50.944;5.260;2024-03-07T08:47:52;69.70;;;30.30;;
33268;SDS011;19640;50.944;5.260;2024-03-07T08:50:21;81.00;;;30.40;;
33268;SDS011;19640;50.944;5.260;2024-03-07T08:52:48;63.95;;;30.15;;
33268;SDS011;19640;50.944;5.260;2024-03-07T08:55:20;73.45;;;29.40;;
33268;SDS011;19640;50.944;5.260;2024-03-07T08:57:52;67.10;;;31.33;;
33268;SDS011;19640;50.944;5.260;2024-03-07T09:00:18;60.40;;;27.67;;
33268;SDS011;19640;50.944;5.260;2024-03-07T09:02:51;49.13;;;23.60;;
33268;SDS011;19640;50.944;5.260;2024-03-07T09:05:18;57.88;;;27.88;;
33268;SDS011;19640;50.944;5.260;2024-03-07T09:07:45;58.20;;;27.25;;
33268;SDS011;19640;50.944;5.260;2024-03-07T09:10:14;62.03;;;27.08;;
33268;SDS011;19640;50.944;5.260;2024-03-07T09:12:40;59.05;;;26.80;;
33268;SDS011;19640;50.944;5.260;2024-03-07T09:15:06;60.13;;;26.52;;
33268;SDS011;19640;50.944;5.260;2024-03-07T09:17:35;62.80;;;26.85;;
33268;SDS011;19640;50.944;5.260;2024-03-07T09:20:06;55.97;;;27.13;;
33268;SDS011;19640;50.944;5.260;2024-03-07T09:22:40;62.55;;;27.83;;
33268;SDS011;19640;50.944;5.260;2024-03-07T09:25:09;53.20;;;26.65;;
33268;SDS011;19640;50.944;5.260;2024-03-07T09:27:38;50.80;;;25.60;;
33268;SDS011;19640;50.944;5.260;2024-03-07T09:30:08;52.28;;;25.65;;
33268;SDS011;19640;50.944;5.260;2024-03-07T09:32:38;54.70;;;26.08;;
33268;SDS011;19640;50.944;5.260;2024-03-07T09:35:05;53.72;;;26.80;;
33268;SDS011;19640;50.944;5.260;2024-03-07T09:37:32;57.15;;;26.70;;
33268;SDS011;19640;50.944;5.260;2024-03-07T09:39:58;55.60;;;27.13;;
33268;SDS011;19640;50.944;5.260;2024-03-07T09:42:23;49.72;;;24.75;;
33268;SDS011;19640;50.944;5.260;2024-03-07T09:44:50;52.88;;;24.40;;
33268;SDS011;19640;50.944;5.260;2024-03-07T09:47:17;48.97;;;25.50;;
33268;SDS011;19640;50.944;5.260;2024-03-07T09:49:45;49.30;;;25.02;;
33268;SDS011;19640;50.944;5.260;2024-03-07T09:52:10;47.13;;;24.02;;
33268;SDS011;19640;50.944;5.260;2024-03-07T09:54:40;52.50;;;23.60;;
33268;SDS011;19640;50.944;5.260;2024-03-07T09:57:07;45.67;;;23.08;;
33268;SDS011;19640;50.944;5.260;2024-03-07T09:59:36;51.50;;;24.02;;
33268;SDS011;19640;50.944;5.260;2024-03-07T10:02:05;46.70;;;24.17;;
33268;SDS011;19640;50.944;5.260;2024-03-07T10:04:53;44.92;;;21.77;;
33268;SDS011;19640;50.944;5.260;2024-03-07T10:07:18;44.10;;;23.20;;
33268;SDS011;19640;50.944;5.260;2024-03-07T10:09:44;51.85;;;25.65;;
33268;SDS011;19640;50.944;5.260;2024-03-07T10:12:10;43.67;;;24.40;;
33268;SDS011;19640;50.944;5.260;2024-03-07T10:14:49;45.92;;;24.00;;
33268;SDS011;19640;50.944;5.260;2024-03-07T10:17:18;47.78;;;23.50;;
33268;SDS011;19640;50.944;5.260;2024-03-07T10:19:47;52.05;;;24.15;;
33268;SDS011;19640;50.944;5.260;2024-03-07T10:22:15;47.42;;;24.83;;
33268;SDS011;19640;50.944;5.260;2024-03-07T10:24:49;47.97;;;24.17;;
33268;SDS011;19640;50.944;5.260;2024-03-07T10:27:17;45.17;;;23.08;;
33268;SDS011;19640;50.944;5.260;2024-03-07T10:29:45;47.80;;;24.30;;
33268;SDS011;19640;50.944;5.260;2024-03-07T10:32:20;37.42;;;23.30;;
33268;SDS011;19640;50.944;5.260;2024-03-07T10:34:47;48.05;;;24.55;;
33268;SDS011;19640;50.944;5.260;2024-03-07T10:37:17;42.38;;;23.77;;
33268;SDS011;19640;50.944;5.260;2024-03-07T10:39:48;38.35;;;22.05;;
33268;SDS011;19640;50.944;5.260;2024-03-07T10:42:14;46.28;;;23.85;;
33268;SDS011;19640;50.944;5.260;2024-03-07T10:44:45;53.20;;;25.60;;
33268;SDS011;19640;50.944;5.260;2024-03-07T10:47:16;43.10;;;23.80;;
33268;SDS011;19640;50.944;5.260;2024-03-07T10:56:11;44.22;;;23.38;;
33268;SDS011;19640;50.944;5.260;2024-03-07T10:58:47;38.72;;;21.55;;
33268;SDS011;19640;50.944;5.260;2024-03-07T11:01:15;37.20;;;19.33;;
33268;SDS011;19640;50.944;5.260;2024-03-07T11:03:45;45.60;;;23.83;;
33268;SDS011;19640;50.944;5.260;2024-03-07T11:06:11;47.97;;;25.02;;
33268;SDS011;19640;50.944;5.260;2024-03-07T11:08:39;39.38;;;23.05;;
33268;SDS011;19640;50.944;5.260;2024-03-07T11:11:06;44.13;;;25.00;;
33268;SDS011;19640;50.944;5.260;2024-03-07T11:13:33;45.03;;;25.35;;
33268;SDS011;19640;50.944;5.260;2024-03-07T11:15:59;44.45;;;25.08;;
33268;SDS011;19640;50.944;5.260;2024-03-07T11:18:26;45.28;;;22.85;;
33268;SDS011;19640;50.944;5.260;2024-03-07T11:20:52;39.38;;;23.00;;
33268;SDS011;19640;50.944;5.260;2024-03-07T11:23:25;36.42;;;19.10;;
33268;SDS011;19640;50.944;5.260;2024-03-07T11:26:06;26.63;;;17.00;;
33268;SDS011;19640;50.944;5.260;2024-03-07T11:28:36;41.38;;;18.85;;
33268;SDS011;19640;50.944;5.260;2024-03-07T11:31:10;38.92;;;22.60;;
33268;SDS011;19640;50.944;5.260;2024-03-07T11:33:39;37.88;;;22.83;;
33268;SDS011;19640;50.944;5.260;2024-03-07T11:36:42;41.53;;;23.27;;
33268;SDS011;19640;50.944;5.260;2024-03-07T11:39:39;36.55;;;21.95;;
33268;SDS011;19640;50.944;5.260;2024-03-07T11:42:04;36.55;;;19.25;;
33268;SDS011;19640;50.944;5.260;2024-03-07T11:44:31;37.05;;;21.60;;
33268;SDS011;19640;50.944;5.260;2024-03-07T11:47:00;36.22;;;20.13;;
33268;SDS011;19640;50.944;5.260;2024-03-07T11:49:34;31.92;;;20.08;;
33268;SDS011;19640;50.944;5.260;2024-03-07T11:52:01;29.80;;;18.88;;
33268;SDS011;19640;50.944;5.260;2024-03-07T11:54:37;30.02;;;17.75;;
33268;SDS011;19640;50.944;5.260;2024-03-07T11:57:09;38.13;;;20.35;;
33268;SDS011;19640;50.944;5.260;2024-03-07T12:02:05;30.45;;;18.35;;
33268;SDS011;19640;50.944;5.260;2024-03-07T12:04:30;33.13;;;19.77;;
33268;SDS011;19640;50.944;5.260;2024-03-07T12:07:00;28.50;;;17.92;;
33268;SDS011;19640;50.944;5.260;2024-03-07T12:09:25;22.85;;;15.07;;
33268;SDS011;19640;50.944;5.260;2024-03-07T12:11:51;23.08;;;15.98;;
33268;SDS011;19640;50.944;5.260;2024-03-07T12:14:18;24.77;;;17.77;;
33268;SDS011;19640;50.944;5.260;2024-03-07T12:16:45;26.63;;;16.65;;
33268;SDS011;19640;50.944;5.260;2024-03-07T12:19:11;26.30;;;17.20;;
33268;SDS011;19640;50.944;5.260;2024-03-07T12:21:37;27.45;;;17.92;;
33268;SDS011;19640;50.944;5.260;2024-03-07T12:24:13;24.70;;;17.05;;
33268;SDS011;19640;50.944;5.260;2024-03-07T12:26:40;24.15;;;16.25;;
33268;SDS011;19640;50.944;5.260;2024-03-07T12:29:10;20.35;;;11.90;;
33268;SDS011;19640;50.944;5.260;2024-03-07T12:31:41;24.05;;;16.42;;
33268;SDS011;19640;50.944;5.260;2024-03-07T12:34:07;28.00;;;16.95;;
33268;SDS011;19640;50.944;5.260;2024-03-07T12:36:36;26.00;;;16.77;;
33268;SDS011;19640;50.944;5.260;2024-03-07T12:39:24;20.30;;;14.07;;
33268;SDS011;19640;50.944;5.260;2024-03-07T12:41:55;25.45;;;16.92;;
33268;SDS011;19640;50.944;5.260;2024-03-07T12:44:21;21.02;;;15.00;;
33268;SDS011;19640;50.944;5.260;2024-03-07T12:46:56;23.90;;;16.75;;
33268;SDS011;19640;50.944;5.260;2024-03-07T12:49:22;21.52;;;13.73;;
33268;SDS011;19640;50.944;5.260;2024-03-07T12:51:53;25.45;;;16.63;;
33268;SDS011;19640;50.944;5.260;2024-03-07T12:54:19;17.35;;;12.07;;
33268;SDS011;19640;50.944;5.260;2024-03-07T12:56:45;22.95;;;15.80;;
33268;SDS011;19640;50.944;5.260;2024-03-07T12:59:11;27.00;;;16.58;;
33268;SDS011;19640;50.944;5.260;2024-03-07T13:01:36;25.13;;;15.82;;
33268;SDS011;19640;50.944;5.260;2024-03-07T13:04:10;22.30;;;15.20;;
33268;SDS011;19640;50.944;5.260;2024-03-07T13:06:36;18.85;;;13.45;;
33268;SDS011;19640;50.944;5.260;2024-03-07T13:09:02;24.15;;;16.65;;
33268;SDS011;19640;50.944;5.260;2024-03-07T13:11:28;27.10;;;16.77;;
33268;SDS011;19640;50.944;5.260;2024-03-07T13:13:57;21.73;;;14.68;;
33268;SDS011;19640;50.944;5.260;2024-03-07T13:16:23;22.50;;;15.07;;
33268;SDS011;19640;50.944;5.260;2024-03-07T13:18:53;18.35;;;11.90;;
33268;SDS011;19640;50.944;5.260;2024-03-07T13:21:19;26.52;;;15.40;;
33268;SDS011;19640;50.944;5.260;2024-03-07T13:23:45;23.08;;;14.77;;
33268;SDS011;19640;50.944;5.260;2024-03-07T13:26:11;20.50;;;15.07;;
33268;SDS011;19640;50.944;5.260;2024-03-07T13:28:42;30.60;;;16.95;;
33268;SDS011;19640;50.944;5.260;2024-03-07T13:31:09;22.65;;;16.92;;
33268;SDS011;19640;50.944;5.260;2024-03-07T13:33:42;23.27;;;15.68;;
33268;SDS011;19640;50.944;5.260;2024-03-07T13:36:11;24.95;;;15.63;;
33268;SDS011;19640;50.944;5.260;2024-03-07T13:38:39;24.30;;;15.35;;
33268;SDS011;19640;50.944;5.260;2024-03-07T13:41:05;26.90;;;16.60;;
33268;SDS011;19640;50.944;5.260;2024-03-07T13:43:31;24.45;;;16.35;;
33268;SDS011;19640;50.944;5.260;2024-03-07T13:46:00;28.15;;;16.25;;
33268;SDS011;19640;50.944;5.260;2024-03-07T13:48:25;24.15;;;16.27;;
33268;SDS011;19640;50.944;5.260;2024-03-07T13:50:51;19.73;;;12.82;;
33268;SDS011;19640;50.944;5.260;2024-03-07T13:53:19;26.52;;;14.80;;
33268;SDS011;19640;50.944;5.260;2024-03-07T13:59:00;24.38;;;15.25;;
33268;SDS011;19640;50.944;5.260;2024-03-07T14:24:08;19.15;;;14.18;;
33268;SDS011;19640;50.944;5.260;2024-03-07T14:30:09;18.67;;;12.80;;
33268;SDS011;19640;50.944;5.260;2024-03-07T14:33:00;24.75;;;14.25;;
33268;SDS011;19640;50.944;5.260;2024-03-07T14:35:31;19.42;;;11.93;;
33268;SDS011;19640;50.944;5.260;2024-03-07T14:38:42;18.77;;;12.40;;
33268;SDS011;19640;50.944;5.260;2024-03-07T14:40:53;20.75;;;13.68;;
33268;SDS011;19640;50.944;5.260;2024-03-07T14:43:21;18.15;;;13.13;;
33268;SDS011;19640;50.944;5.260;2024-03-07T14:45:47;21.30;;;13.95;;
33268;SDS011;19640;50.944;5.260;2024-03-07T14:48:16;19.20;;;11.50;;
33268;SDS011;19640;50.944;5.260;2024-03-07T14:50:44;16.80;;;12.23;;
33268;SDS011;19640;50.944;5.260;2024-03-07T14:53:11;21.15;;;13.27;;
33268;SDS011;19640;50.944;5.260;2024-03-07T14:55:39;16.90;;;13.05;;
33268;SDS011;19640;50.944;5.260;2024-03-07T14:58:05;20.65;;;12.13;;
33268;SDS011;19640;50.944;5.260;2024-03-07T15:00:34;13.43;;;9.35;;